• Join FlightAware (Why Join?)
  • Login
  • US Flag 
08:14PM EDT


 

Airport Tracker/Info


-or-


 

Live Flight TrackerFlight Track Log ✈ KAP927 ✈ 21-Aug-2013 ✈ KALB - KOGS

Flight Track Log - Related Links

Times and Time Zones

All times are in EDT time to prevent confusion due to time zone crossing. See the KAP927 flight status page for this flight to view local times or setup timezone preferences in your user account.

Time Position Orientation Groundspeed Altitude Reporting Facility
EDT Latitude Longitude Course Direction KTS MPH feet Rate Location/Type
06:51PM 42.7361 -73.8083 329° Northwest 99 114 900  Level Boston Center
06:52PM 42.7153 -73.8078 179° South 106 122 1,200 540 Climbing Boston Center
06:53PM 42.7147 -73.8500 269° West 123 142 1,800 600 Climbing Boston Center
06:54PM 42.7372 -73.8847 311° West 127 146 2,400 600 Climbing Boston Center
06:55PM 42.7661 -73.9022 336° Northwest 116 133 3,100 540 Climbing Boston Center
06:56PM 42.7992 -73.9286 330° Northwest 126 145 3,600 480 Climbing Boston Center
06:57PM 42.9429 -73.9631 329° Northwest  Level Estimated
06:57PM 42.8300 -73.9547 328° Northwest 132 152 4,200  Level Boston Center
06:58PM 42.8692 -73.9839 331° Northwest 136 157 4,900 480 Climbing Boston Center
06:59PM 42.9044 -74.0133 329° Northwest 137 158 5,400 480 Climbing Boston Center
07:00PM 42.9353 -74.0367 331° Northwest 137 158 5,900 480 Climbing Boston Center
07:01PM 42.9600 -74.0572 329° Northwest 136 157 6,300 480 Climbing Boston Center
07:02PM 42.9908 -74.0836 328° Northwest 134 154 6,900 540 Climbing Boston Center
07:03PM 43.0281 -74.1131 330° Northwest 130 150 7,500 420 Climbing Boston Center
07:04PM 43.0589 -74.1367 331° Northwest 133 153 7,900 180 Climbing Boston Center
07:05PM 43.0958 -74.1661 330° Northwest 155 178 7,900  Level Boston Center
07:07PM 43.1556 -74.2103 332° Northwest 170 196 8,000  Climbing Boston Center
07:08PM 43.1906 -74.2428 326° Northwest 164 189 7,900 -60 Descending Boston Center
07:09PM 43.2339 -74.2753 331° Northwest 164 189 7,900  Level Boston Center
07:10PM 43.2667 -74.3050 327° Northwest 164 189 7,900  Level Boston Center
07:11PM 43.3100 -74.3347 333° Northwest 164 189 7,900  Level Boston Center
07:12PM 43.3428 -74.3644 327° Northwest 164 189 7,900  Level Boston Center
07:13PM 43.3842 -74.3942 332° Northwest 164 189 7,900  Level Boston Center
07:14PM 43.4211 -74.4239 330° Northwest 164 189 7,900  Level Boston Center
07:15PM 43.4558 -74.4536 328° Northwest 164 189 8,000  Climbing Boston Center
07:16PM 43.4908 -74.4836 328° Northwest 159 183 8,000 -60 Level Boston Center
07:17PM 43.5278 -74.5106 332° Northwest 159 183 7,900  Descending Boston Center
07:18PM 43.5647 -74.5406 330° Northwest 159 183 8,000  Climbing Boston Center
07:19PM 43.5997 -74.5703 328° Northwest 159 183 7,900  Descending Boston Center
07:20PM 43.6367 -74.6003 330° Northwest 159 183 8,000  Climbing Boston Center
07:21PM 43.6717 -74.6272 331° Northwest 159 183 8,000 -60 Level Boston Center
07:22PM 43.7086 -74.6575 329° Northwest 154 177 7,900 -60 Descending Boston Center
07:23PM 43.7456 -74.6847 332° Northwest 154 177 7,900  Level Boston Center
07:24PM 43.7783 -74.7147 327° Northwest 149 171 7,900  Level Boston Center
07:25PM 43.8131 -74.7419 331° Northwest 149 171 8,000  Climbing Boston Center
07:26PM 43.8500 -74.7722 329° Northwest 149 171 8,000 -60 Level Boston Center
07:27PM 43.8850 -74.8022 328° Northwest 149 171 7,900  Descending Boston Center
07:28PM 43.9219 -74.8297 332° Northwest 149 171 8,000  Climbing Boston Center
07:29PM 43.9567 -74.8569 331° Northwest 149 171 8,000  Level Boston Center
07:30PM 43.9914 -74.8872 328° Northwest 149 171 8,000  Level Boston Center
07:31PM 44.0264 -74.9175 328° Northwest 149 171 8,000  Level Boston Center
07:32PM 44.0611 -74.9450 330° Northwest 149 171 8,000  Level Boston Center
07:33PM 44.0978 -74.9783 327° Northwest 149 171 8,000 -240 Level Boston Center
07:34PM 44.1389 -75.0092 332° Northwest 154 177 7,600 -480 Descending Boston Center
07:35PM 44.1778 -75.0397 331° Northwest 154 177 7,100 -540 Descending Boston Center
07:36PM 44.2208 -75.0733 331° Northwest 166 191 6,600 -540 Descending Boston Center
07:37PM 44.2636 -75.1072 330° Northwest 171 197 6,100 -480 Descending Boston Center
07:38PM 44.3003 -75.1436 325° Northwest 165 190 5,700 -420 Descending Boston Center
07:39PM 44.3433 -75.1775 331° Northwest 165 190 5,300 -480 Descending Boston Center